sensor_id;sensor_type;location;lat;lon;timestamp;pressure;altitude;pressure_sealevel;temperature;humidity
81608;BME280;71022;48.122;11.576;2023-07-13T00:02:23;95576.13;;;20.22;76.46
81608;BME280;71022;48.122;11.576;2023-07-13T00:04:51;95572.88;;;20.31;76.00
81608;BME280;71022;48.122;11.576;2023-07-13T00:07:19;95560.75;;;20.45;75.32
81608;BME280;71022;48.122;11.576;2023-07-13T00:09:51;95566.06;;;20.66;74.29
81608;BME280;71022;48.122;11.576;2023-07-13T00:12:30;95554.63;;;20.57;74.31
81608;BME280;71022;48.122;11.576;2023-07-13T00:14:58;95564.75;;;20.43;75.13
81608;BME280;71022;48.122;11.576;2023-07-13T00:17:27;95550.94;;;20.63;73.91
81608;BME280;71022;48.122;11.576;2023-07-13T00:19:56;95553.53;;;20.77;73.16
81608;BME280;71022;48.122;11.576;2023-07-13T00:22:24;95561.16;;;21.00;72.51
81608;BME280;71022;48.122;11.576;2023-07-13T00:24:53;95572.19;;;20.84;73.61
81608;BME280;71022;48.122;11.576;2023-07-13T00:27:24;95563.53;;;20.75;74.00
81608;BME280;71022;48.122;11.576;2023-07-13T00:29:52;95561.78;;;20.58;74.40
81608;BME280;71022;48.122;11.576;2023-07-13T00:32:20;95564.31;;;20.49;75.27
81608;BME280;71022;48.122;11.576;2023-07-13T00:34:47;95564.84;;;20.36;75.87
81608;BME280;71022;48.122;11.576;2023-07-13T00:37:16;95565.75;;;20.26;76.51
81608;BME280;71022;48.122;11.576;2023-07-13T00:39:43;95568.59;;;20.19;76.47
81608;BME280;71022;48.122;11.576;2023-07-13T00:42:10;95572.69;;;20.11;76.64
81608;BME280;71022;48.122;11.576;2023-07-13T00:44:38;95576.09;;;20.29;74.97
81608;BME280;71022;48.122;11.576;2023-07-13T00:47:06;95567.16;;;20.04;76.52
81608;BME280;71022;48.122;11.576;2023-07-13T00:49:35;95570.44;;;19.99;76.20
81608;BME280;71022;48.122;11.576;2023-07-13T00:52:08;95573.03;;;20.13;76.16
81608;BME280;71022;48.122;11.576;2023-07-13T00:54:38;95567.75;;;20.22;75.77
81608;BME280;71022;48.122;11.576;2023-07-13T00:57:14;95576.00;;;20.36;75.51
81608;BME280;71022;48.122;11.576;2023-07-13T00:59:44;95576.69;;;20.44;75.44
81608;BME280;71022;48.122;11.576;2023-07-13T01:02:12;95572.75;;;20.41;75.10
81608;BME280;71022;48.122;11.576;2023-07-13T01:04:39;95563.78;;;20.57;75.16
81608;BME280;71022;48.122;11.576;2023-07-13T01:07:11;95560.47;;;20.35;74.54
81608;BME280;71022;48.122;11.576;2023-07-13T01:09:39;95544.22;;;20.30;75.57
81608;BME280;71022;48.122;11.576;2023-07-13T01:12:07;95548.13;;;20.36;75.02
81608;BME280;71022;48.122;11.576;2023-07-13T01:14:35;95537.69;;;20.40;75.77
81608;BME280;71022;48.122;11.576;2023-07-13T01:17:03;95525.31;;;20.41;75.11
81608;BME280;71022;48.122;11.576;2023-07-13T01:19:40;95530.53;;;20.39;74.95
81608;BME280;71022;48.122;11.576;2023-07-13T01:22:10;95529.63;;;20.46;74.39
81608;BME280;71022;48.122;11.576;2023-07-13T01:24:40;95528.72;;;20.56;74.33
81608;BME280;71022;48.122;11.576;2023-07-13T01:27:09;95516.16;;;20.71;73.26
81608;BME280;71022;48.122;11.576;2023-07-13T01:29:42;95513.84;;;20.93;72.04
81608;BME280;71022;48.122;11.576;2023-07-13T01:32:12;95507.44;;;20.92;71.96
81608;BME280;71022;48.122;11.576;2023-07-13T01:34:39;95510.66;;;20.91;72.38
81608;BME280;71022;48.122;11.576;2023-07-13T01:37:10;95518.66;;;20.89;72.78
81608;BME280;71022;48.122;11.576;2023-07-13T01:39:39;95511.75;;;20.97;72.30
81608;BME280;71022;48.122;11.576;2023-07-13T01:42:06;95512.16;;;20.99;71.68
81608;BME280;71022;48.122;11.576;2023-07-13T01:44:33;95507.09;;;21.17;70.65
81608;BME280;71022;48.122;11.576;2023-07-13T01:47:01;95514.38;;;21.11;70.96
81608;BME280;71022;48.122;11.576;2023-07-13T01:49:28;95516.97;;;20.95;71.79
81608;BME280;71022;48.122;11.576;2023-07-13T01:51:55;95528.09;;;20.98;71.58
81608;BME280;71022;48.122;11.576;2023-07-13T01:54:23;95533.44;;;21.16;71.43
81608;BME280;71022;48.122;11.576;2023-07-13T01:56:50;95529.50;;;21.14;70.90
81608;BME280;71022;48.122;11.576;2023-07-13T01:59:17;95539.13;;;21.09;71.43
81608;BME280;71022;48.122;11.576;2023-07-13T02:01:45;95554.78;;;20.73;72.83
81608;BME280;71022;48.122;11.576;2023-07-13T02:04:12;95562.69;;;20.51;73.85
81608;BME280;71022;48.122;11.576;2023-07-13T02:06:39;95563.03;;;20.53;73.39
81608;BME280;71022;48.122;11.576;2023-07-13T02:09:06;95555.94;;;20.49;73.67
81608;BME280;71022;48.122;11.576;2023-07-13T02:11:33;95564.47;;;20.65;73.33
81608;BME280;71022;48.122;11.576;2023-07-13T02:14:01;95561.75;;;20.88;72.39
81608;BME280;71022;48.122;11.576;2023-07-13T02:16:30;95559.97;;;21.01;71.86
81608;BME280;71022;48.122;11.576;2023-07-13T02:18:58;95555.88;;;21.09;71.78
81608;BME280;71022;48.122;11.576;2023-07-13T02:21:26;95556.03;;;21.25;71.08
81608;BME280;71022;48.122;11.576;2023-07-13T02:23:53;95555.44;;;21.14;71.44
81608;BME280;71022;48.122;11.576;2023-07-13T02:26:21;95557.13;;;21.08;71.47
81608;BME280;71022;48.122;11.576;2023-07-13T02:28:48;95555.09;;;21.09;71.85
81608;BME280;71022;48.122;11.576;2023-07-13T02:31:16;95565.38;;;21.15;71.49
81608;BME280;71022;48.122;11.576;2023-07-13T02:33:45;95570.75;;;21.29;71.02
81608;BME280;71022;48.122;11.576;2023-07-13T02:36:12;95571.94;;;21.28;70.68
81608;BME280;71022;48.122;11.576;2023-07-13T02:38:42;95575.06;;;21.34;70.43
81608;BME280;71022;48.122;11.576;2023-07-13T02:41:09;95578.88;;;21.20;71.10
81608;BME280;71022;48.122;11.576;2023-07-13T02:43:39;95585.19;;;21.24;70.81
81608;BME280;71022;48.122;11.576;2023-07-13T02:46:08;95593.94;;;21.26;71.09
81608;BME280;71022;48.122;11.576;2023-07-13T02:48:37;95606.91;;;21.13;71.56
81608;BME280;71022;48.122;11.576;2023-07-13T02:51:07;95612.13;;;21.08;72.40
81608;BME280;71022;48.122;11.576;2023-07-13T02:53:35;95607.78;;;21.33;71.18
81608;BME280;71022;48.122;11.576;2023-07-13T02:56:04;95608.28;;;21.28;72.28
81608;BME280;71022;48.122;11.576;2023-07-13T02:58:32;95617.97;;;21.20;72.12
81608;BME280;71022;48.122;11.576;2023-07-13T03:00:59;95610.72;;;20.96;72.98
81608;BME280;71022;48.122;11.576;2023-07-13T03:03:26;95621.31;;;20.48;73.53
81608;BME280;71022;48.122;11.576;2023-07-13T03:05:59;95622.75;;;19.84;76.25
81608;BME280;71022;48.122;11.576;2023-07-13T03:08:32;95615.06;;;19.51;78.81
81608;BME280;71022;48.122;11.576;2023-07-13T03:11:04;95610.31;;;19.52;77.10
81608;BME280;71022;48.122;11.576;2023-07-13T03:13:35;95605.19;;;19.47;77.20
81608;BME280;71022;48.122;11.576;2023-07-13T03:16:05;95613.50;;;19.50;75.85
81608;BME280;71022;48.122;11.576;2023-07-13T03:18:33;95621.31;;;19.66;74.71
81608;BME280;71022;48.122;11.576;2023-07-13T03:21:05;95624.41;;;19.75;75.16
81608;BME280;71022;48.122;11.576;2023-07-13T03:23:33;95622.72;;;19.88;73.93
81608;BME280;71022;48.122;11.576;2023-07-13T03:26:09;95626.63;;;19.98;74.40
81608;BME280;71022;48.122;11.576;2023-07-13T03:28:39;95616.28;;;19.95;73.91
81608;BME280;71022;48.122;11.576;2023-07-13T03:31:12;95618.66;;;19.96;72.50
81608;BME280;71022;48.122;11.576;2023-07-13T03:33:42;95610.06;;;19.80;73.58
81608;BME280;71022;48.122;11.576;2023-07-13T03:36:13;95620.75;;;19.85;72.76
81608;BME280;71022;48.122;11.576;2023-07-13T03:38:41;95632.00;;;20.15;71.90
81608;BME280;71022;48.122;11.576;2023-07-13T03:41:09;95631.97;;;20.19;72.86
81608;BME280;71022;48.122;11.576;2023-07-13T03:43:36;95639.75;;;20.38;72.02
81608;BME280;71022;48.122;11.576;2023-07-13T03:46:04;95634.81;;;20.49;70.89
81608;BME280;71022;48.122;11.576;2023-07-13T03:48:33;95635.59;;;20.53;71.21
81608;BME280;71022;48.122;11.576;2023-07-13T03:51:01;95629.09;;;20.63;70.57
81608;BME280;71022;48.122;11.576;2023-07-13T03:53:29;95644.84;;;20.77;70.41
81608;BME280;71022;48.122;11.576;2023-07-13T03:55:57;95632.22;;;20.69;70.52
81608;BME280;71022;48.122;11.576;2023-07-13T03:58:29;95635.78;;;20.35;71.66
81608;BME280;71022;48.122;11.576;2023-07-13T04:01:03;95639.09;;;20.23;71.78
81608;BME280;71022;48.122;11.576;2023-07-13T04:03:33;95645.34;;;19.94;73.82
81608;BME280;71022;48.122;11.576;2023-07-13T04:06:06;95642.91;;;19.55;75.67
81608;BME280;71022;48.122;11.576;2023-07-13T04:08:35;95640.63;;;19.43;75.60
81608;BME280;71022;48.122;11.576;2023-07-13T04:11:04;95643.03;;;19.33;76.80
81608;BME280;71022;48.122;11.576;2023-07-13T04:13:31;95645.22;;;19.08;76.43
81608;BME280;71022;48.122;11.576;2023-07-13T04:15:59;95647.34;;;18.76;76.92
81608;BME280;71022;48.122;11.576;2023-07-13T04:18:26;95649.81;;;18.60;78.48
81608;BME280;71022;48.122;11.576;2023-07-13T04:20:53;95659.94;;;19.05;76.20
81608;BME280;71022;48.122;11.576;2023-07-13T04:23:20;95650.91;;;19.49;74.67
81608;BME280;71022;48.122;11.576;2023-07-13T04:25:48;95653.59;;;19.63;74.44
81608;BME280;71022;48.122;11.576;2023-07-13T04:28:23;95655.50;;;19.73;74.12
81608;BME280;71022;48.122;11.576;2023-07-13T04:30:51;95657.75;;;19.89;72.90
81608;BME280;71022;48.122;11.576;2023-07-13T04:33:22;95654.53;;;19.94;72.86
81608;BME280;71022;48.122;11.576;2023-07-13T04:35:51;95649.56;;;20.12;72.38
81608;BME280;71022;48.122;11.576;2023-07-13T04:38:25;95658.16;;;20.32;71.56
81608;BME280;71022;48.122;11.576;2023-07-13T04:40:59;95666.16;;;20.30;71.18
81608;BME280;71022;48.122;11.576;2023-07-13T04:43:27;95669.91;;;20.50;71.09
81608;BME280;71022;48.122;11.576;2023-07-13T04:45:55;95661.91;;;20.52;69.86
81608;BME280;71022;48.122;11.576;2023-07-13T04:48:23;95667.16;;;20.47;69.09
81608;BME280;71022;48.122;11.576;2023-07-13T04:50:58;95669.94;;;20.47;69.77
81608;BME280;71022;48.122;11.576;2023-07-13T04:53:26;95665.88;;;20.55;69.38
81608;BME280;71022;48.122;11.576;2023-07-13T04:55:53;95669.03;;;20.57;69.45
81608;BME280;71022;48.122;11.576;2023-07-13T04:58:21;95668.59;;;20.58;69.18
81608;BME280;71022;48.122;11.576;2023-07-13T05:00:49;95676.56;;;20.60;69.43
81608;BME280;71022;48.122;11.576;2023-07-13T05:03:16;95666.59;;;20.59;68.65
81608;BME280;71022;48.122;11.576;2023-07-13T05:05:55;95678.00;;;20.75;68.87
81608;BME280;71022;48.122;11.576;2023-07-13T05:08:22;95684.78;;;20.74;68.66
81608;BME280;71022;48.122;11.576;2023-07-13T05:10:51;95684.94;;;20.60;68.89
81608;BME280;71022;48.122;11.576;2023-07-13T05:13:19;95682.09;;;20.67;68.79
81608;BME280;71022;48.122;11.576;2023-07-13T05:15:54;95689.69;;;20.63;69.10
81608;BME280;71022;48.122;11.576;2023-07-13T05:18:23;95678.88;;;20.68;68.93
81608;BME280;71022;48.122;11.576;2023-07-13T05:23:28;95688.94;;;20.59;69.31
81608;BME280;71022;48.122;11.576;2023-07-13T05:25:56;95685.06;;;20.49;69.23
81608;BME280;71022;48.122;11.576;2023-07-13T05:28:25;95685.44;;;20.51;69.31
81608;BME280;71022;48.122;11.576;2023-07-13T05:30:53;95689.78;;;20.56;69.08
81608;BME280;71022;48.122;11.576;2023-07-13T05:33:21;95696.09;;;20.60;69.44
81608;BME280;71022;48.122;11.576;2023-07-13T05:35:48;95692.94;;;20.58;69.46
81608;BME280;71022;48.122;11.576;2023-07-13T05:38:16;95692.50;;;20.63;70.12
81608;BME280;71022;48.122;11.576;2023-07-13T05:40:44;95693.78;;;20.55;70.10
81608;BME280;71022;48.122;11.576;2023-07-13T05:43:12;95690.78;;;20.35;71.15
81608;BME280;71022;48.122;11.576;2023-07-13T05:45:40;95698.66;;;20.43;69.94
81608;BME280;71022;48.122;11.576;2023-07-13T05:48:07;95692.66;;;20.49;69.79
81608;BME280;71022;48.122;11.576;2023-07-13T05:50:34;95696.88;;;20.64;69.03
81608;BME280;71022;48.122;11.576;2023-07-13T05:53:02;95698.38;;;20.72;68.49
81608;BME280;71022;48.122;11.576;2023-07-13T05:55:29;95696.59;;;20.85;68.50
81608;BME280;71022;48.122;11.576;2023-07-13T05:57:57;95695.88;;;20.81;68.21
81608;BME280;71022;48.122;11.576;2023-07-13T06:00:25;95689.66;;;20.66;69.41
81608;BME280;71022;48.122;11.576;2023-07-13T06:02:53;95693.97;;;20.71;69.35
81608;BME280;71022;48.122;11.576;2023-07-13T06:05:20;95699.22;;;20.65;68.98
81608;BME280;71022;48.122;11.576;2023-07-13T06:07:47;95698.34;;;20.75;68.94
81608;BME280;71022;48.122;11.576;2023-07-13T06:10:15;95698.72;;;20.74;68.85
81608;BME280;71022;48.122;11.576;2023-07-13T06:12:42;95695.09;;;20.77;68.41
81608;BME280;71022;48.122;11.576;2023-07-13T06:15:10;95708.88;;;20.61;68.80
81608;BME280;71022;48.122;11.576;2023-07-13T06:17:37;95716.78;;;20.66;69.04
81608;BME280;71022;48.122;11.576;2023-07-13T06:20:05;95712.31;;;20.72;69.20
81608;BME280;71022;48.122;11.576;2023-07-13T06:22:32;95723.38;;;20.79;68.94
81608;BME280;71022;48.122;11.576;2023-07-13T06:24:59;95714.88;;;20.93;68.14
81608;BME280;71022;48.122;11.576;2023-07-13T06:27:27;95717.44;;;20.77;68.93
81608;BME280;71022;48.122;11.576;2023-07-13T06:29:57;95723.69;;;20.88;68.52
81608;BME280;71022;48.122;11.576;2023-07-13T06:32:24;95724.72;;;21.01;69.17
81608;BME280;71022;48.122;11.576;2023-07-13T06:34:52;95729.72;;;21.20;68.65
81608;BME280;71022;48.122;11.576;2023-07-13T06:37:19;95733.56;;;21.30;66.75
81608;BME280;71022;48.122;11.576;2023-07-13T06:39:46;95732.63;;;21.06;68.82
81608;BME280;71022;48.122;11.576;2023-07-13T06:42:16;95741.81;;;21.10;68.40
81608;BME280;71022;48.122;11.576;2023-07-13T06:44:48;95747.97;;;21.28;67.24
81608;BME280;71022;48.122;11.576;2023-07-13T06:47:15;95751.94;;;21.27;67.42
81608;BME280;71022;48.122;11.576;2023-07-13T06:49:42;95752.44;;;21.22;68.03
81608;BME280;71022;48.122;11.576;2023-07-13T06:52:10;95748.97;;;21.41;67.42
81608;BME280;71022;48.122;11.576;2023-07-13T06:54:37;95760.28;;;21.61;66.67
81608;BME280;71022;48.122;11.576;2023-07-13T06:57:04;95759.94;;;21.59;65.74
81608;BME280;71022;48.122;11.576;2023-07-13T06:59:32;95758.66;;;21.64;65.99
81608;BME280;71022;48.122;11.576;2023-07-13T07:01:59;95751.47;;;21.63;66.15
81608;BME280;71022;48.122;11.576;2023-07-13T07:04:26;95749.69;;;21.76;65.41
81608;BME280;71022;48.122;11.576;2023-07-13T07:06:54;95758.91;;;21.73;66.14
81608;BME280;71022;48.122;11.576;2023-07-13T07:09:25;95765.16;;;21.53;65.53
81608;BME280;71022;48.122;11.576;2023-07-13T07:11:52;95759.88;;;21.32;66.97
81608;BME280;71022;48.122;11.576;2023-07-13T07:14:30;95754.38;;;21.25;61.21
81608;BME280;71022;48.122;11.576;2023-07-13T07:16:57;95760.66;;;20.99;64.58
81608;BME280;71022;48.122;11.576;2023-07-13T07:19:29;95763.81;;;21.01;64.10
81608;BME280;71022;48.122;11.576;2023-07-13T07:21:56;95754.66;;;20.67;63.03
81608;BME280;71022;48.122;11.576;2023-07-13T07:24:23;95750.94;;;20.77;64.98
81608;BME280;71022;48.122;11.576;2023-07-13T07:26:51;95752.44;;;20.85;64.04
81608;BME280;71022;48.122;11.576;2023-07-13T07:29:21;95764.16;;;21.07;62.94
81608;BME280;71022;48.122;11.576;2023-07-13T07:31:53;95756.16;;;21.09;63.33
81608;BME280;71022;48.122;11.576;2023-07-13T07:34:23;95766.63;;;21.01;63.50
81608;BME280;71022;48.122;11.576;2023-07-13T07:36:53;95773.81;;;21.02;62.98
81608;BME280;71022;48.122;11.576;2023-07-13T07:39:23;95771.91;;;20.92;62.90
81608;BME280;71022;48.122;11.576;2023-07-13T07:41:50;95773.94;;;20.88;63.00
81608;BME280;71022;48.122;11.576;2023-07-13T07:44:21;95783.53;;;20.87;63.24
81608;BME280;71022;48.122;11.576;2023-07-13T07:46:48;95781.91;;;20.89;62.61
81608;BME280;71022;48.122;11.576;2023-07-13T07:49:17;95799.69;;;20.69;63.29
81608;BME280;71022;48.122;11.576;2023-07-13T07:51:44;95805.31;;;20.62;63.25
81608;BME280;71022;48.122;11.576;2023-07-13T07:54:12;95802.16;;;20.60;62.51
81608;BME280;71022;48.122;11.576;2023-07-13T07:56:48;95802.16;;;20.60;62.89
81608;BME280;71022;48.122;11.576;2023-07-13T07:59:36;95802.00;;;20.74;63.08
81608;BME280;71022;48.122;11.576;2023-07-13T08:02:16;95811.63;;;20.69;62.64
81608;BME280;71022;48.122;11.576;2023-07-13T08:04:50;95816.16;;;20.53;63.13
81608;BME280;71022;48.122;11.576;2023-07-13T08:07:21;95820.63;;;20.43;63.42
81608;BME280;71022;48.122;11.576;2023-07-13T08:10:00;95818.25;;;20.41;62.28
81608;BME280;71022;48.122;11.576;2023-07-13T08:12:27;95818.84;;;20.15;63.36
81608;BME280;71022;48.122;11.576;2023-07-13T08:14:58;95819.31;;;20.07;63.21
81608;BME280;71022;48.122;11.576;2023-07-13T08:17:27;95821.66;;;20.12;62.81
81608;BME280;71022;48.122;11.576;2023-07-13T08:19:55;95825.94;;;20.23;63.22
81608;BME280;71022;48.122;11.576;2023-07-13T08:22:23;95831.91;;;20.29;63.13
81608;BME280;71022;48.122;11.576;2023-07-13T08:24:50;95813.47;;;20.46;61.75
81608;BME280;71022;48.122;11.576;2023-07-13T08:27:38;95833.38;;;20.44;61.62
81608;BME280;71022;48.122;11.576;2023-07-13T08:30:16;95828.25;;;20.39;61.60
81608;BME280;71022;48.122;11.576;2023-07-13T08:34:04;95827.31;;;20.53;61.07
81608;BME280;71022;48.122;11.576;2023-07-13T08:37:55;95835.06;;;20.34;61.58
81608;BME280;71022;48.122;11.576;2023-07-13T08:49:57;95846.53;;;20.88;60.15
81608;BME280;71022;48.122;11.576;2023-07-13T08:53:29;95847.97;;;21.03;59.10
81608;BME280;71022;48.122;11.576;2023-07-13T09:00:21;95847.47;;;20.74;58.12
81608;BME280;71022;48.122;11.576;2023-07-13T09:03:22;95855.38;;;20.83;58.68
81608;BME280;71022;48.122;11.576;2023-07-13T09:05:54;95854.31;;;21.11;57.57
81608;BME280;71022;48.122;11.576;2023-07-13T09:08:42;95844.44;;;21.36;55.65
81608;BME280;71022;48.122;11.576;2023-07-13T09:17:00;95840.47;;;21.68;53.15
81608;BME280;71022;48.122;11.576;2023-07-13T09:19:30;95835.28;;;21.66;51.10
81608;BME280;71022;48.122;11.576;2023-07-13T09:22:15;95836.09;;;21.33;50.69
81608;BME280;71022;48.122;11.576;2023-07-13T09:24:57;95838.72;;;21.13;52.34
81608;BME280;71022;48.122;11.576;2023-07-13T09:27:43;95835.81;;;21.24;52.73
81608;BME280;71022;48.122;11.576;2023-07-13T09:32:47;95844.78;;;21.08;53.54
81608;BME280;71022;48.122;11.576;2023-07-13T09:35:24;95828.91;;;21.35;52.15
81608;BME280;71022;48.122;11.576;2023-07-13T09:38:17;95848.09;;;21.64;51.91
81608;BME280;71022;48.122;11.576;2023-07-13T09:44:35;95848.28;;;21.49;51.98
81608;BME280;71022;48.122;11.576;2023-07-13T09:47:20;95843.91;;;21.48;51.38
81608;BME280;71022;48.122;11.576;2023-07-13T09:49:55;95847.75;;;21.28;51.54
81608;BME280;71022;48.122;11.576;2023-07-13T09:52:44;95846.94;;;21.27;51.88
81608;BME280;71022;48.122;11.576;2023-07-13T09:55:34;95850.53;;;21.62;50.95
81608;BME280;71022;48.122;11.576;2023-07-13T09:58:30;95844.84;;;21.69;50.89
81608;BME280;71022;48.122;11.576;2023-07-13T10:01:04;95846.97;;;21.91;51.92
81608;BME280;71022;48.122;11.576;2023-07-13T10:03:51;95843.78;;;21.89;52.29
81608;BME280;71022;48.122;11.576;2023-07-13T10:06:24;95845.81;;;22.16;51.30
81608;BME280;71022;48.122;11.576;2023-07-13T10:08:58;95848.81;;;22.28;48.55
81608;BME280;71022;48.122;11.576;2023-07-13T10:11:30;95841.31;;;22.48;46.44
81608;BME280;71022;48.122;11.576;2023-07-13T10:14:01;95849.66;;;22.25;48.15
81608;BME280;71022;48.122;11.576;2023-07-13T10:16:33;95860.47;;;22.50;49.87
81608;BME280;71022;48.122;11.576;2023-07-13T10:21:47;95856.78;;;23.26;47.89
81608;BME280;71022;48.122;11.576;2023-07-13T10:24:24;95862.50;;;23.62;46.40
81608;BME280;71022;48.122;11.576;2023-07-13T10:27:15;95859.69;;;23.62;45.73
81608;BME280;71022;48.122;11.576;2023-07-13T10:32:21;95864.44;;;23.22;42.36
81608;BME280;71022;48.122;11.576;2023-07-13T10:34:51;95854.19;;;22.69;38.23
81608;BME280;71022;48.122;11.576;2023-07-13T10:37:22;95853.53;;;22.58;41.41
81608;BME280;71022;48.122;11.576;2023-07-13T10:39:55;95863.50;;;22.86;43.72
81608;BME280;71022;48.122;11.576;2023-07-13T10:42:33;95859.28;;;23.21;40.25
81608;BME280;71022;48.122;11.576;2023-07-13T10:45:13;95855.63;;;23.24;39.12
81608;BME280;71022;48.122;11.576;2023-07-13T10:47:44;95860.78;;;23.25;41.11
81608;BME280;71022;48.122;11.576;2023-07-13T10:50:22;95858.59;;;23.13;38.42
81608;BME280;71022;48.122;11.576;2023-07-13T10:52:54;95860.69;;;22.86;38.91
81608;BME280;71022;48.122;11.576;2023-07-13T10:55:40;95863.25;;;22.77;38.63
81608;BME280;71022;48.122;11.576;2023-07-13T11:03:46;95873.56;;;22.56;41.46
81608;BME280;71022;48.122;11.576;2023-07-13T11:07:17;95873.31;;;22.47;42.06
81608;BME280;71022;48.122;11.576;2023-07-13T11:09:33;95884.47;;;22.51;42.83
81608;BME280;71022;48.122;11.576;2023-07-13T11:20:19;95866.94;;;23.79;40.31
81608;BME280;71022;48.122;11.576;2023-07-13T11:23:08;95874.47;;;23.62;41.19
81608;BME280;71022;48.122;11.576;2023-07-13T11:25:36;95878.09;;;23.43;42.81
81608;BME280;71022;48.122;11.576;2023-07-13T11:30:50;95868.59;;;22.68;42.82
81608;BME280;71022;48.122;11.576;2023-07-13T11:33:52;95868.75;;;22.84;45.03
81608;BME280;71022;48.122;11.576;2023-07-13T11:37:17;95856.97;;;22.92;44.17
81608;BME280;71022;48.122;11.576;2023-07-13T11:40:54;95858.22;;;23.34;42.93
81608;BME280;71022;48.122;11.576;2023-07-13T11:43:49;95849.81;;;23.54;43.10
81608;BME280;71022;48.122;11.576;2023-07-13T11:47:19;95837.97;;;23.46;41.24
81608;BME280;71022;48.122;11.576;2023-07-13T11:53:03;95834.47;;;23.19;41.96
81608;BME280;71022;48.122;11.576;2023-07-13T11:55:45;95829.78;;;23.55;40.95
81608;BME280;71022;48.122;11.576;2023-07-13T11:58:33;95817.78;;;23.91;39.27
81608;BME280;71022;48.122;11.576;2023-07-13T12:01:23;95821.25;;;23.79;38.94
81608;BME280;71022;48.122;11.576;2023-07-13T12:04:46;95822.13;;;23.76;38.08
81608;BME280;71022;48.122;11.576;2023-07-13T12:08:22;95826.41;;;24.00;37.77
81608;BME280;71022;48.122;11.576;2023-07-13T12:11:05;95820.78;;;24.00;37.87
81608;BME280;71022;48.122;11.576;2023-07-13T12:13:47;95815.53;;;24.02;37.36
81608;BME280;71022;48.122;11.576;2023-07-13T12:19:25;95821.28;;;24.14;39.67
81608;BME280;71022;48.122;11.576;2023-07-13T12:22:04;95825.94;;;24.21;38.65
81608;BME280;71022;48.122;11.576;2023-07-13T12:25:08;95820.34;;;24.21;37.40
81608;BME280;71022;48.122;11.576;2023-07-13T12:27:39;95816.78;;;24.01;38.31
81608;BME280;71022;48.122;11.576;2023-07-13T12:30:30;95815.13;;;23.84;39.74
81608;BME280;71022;48.122;11.576;2023-07-13T12:33:16;95803.31;;;23.56;40.02
81608;BME280;71022;48.122;11.576;2023-07-13T12:35:49;95809.22;;;23.42;40.31
81608;BME280;71022;48.122;11.576;2023-07-13T12:38:19;95812.09;;;23.58;41.99
81608;BME280;71022;48.122;11.576;2023-07-13T12:40:50;95812.91;;;23.95;41.19
81608;BME280;71022;48.122;11.576;2023-07-13T12:43:22;95805.69;;;23.94;39.45
81608;BME280;71022;48.122;11.576;2023-07-13T12:46:04;95809.41;;;24.07;42.26
81608;BME280;71022;48.122;11.576;2023-07-13T12:48:41;95799.03;;;24.40;40.70
81608;BME280;71022;48.122;11.576;2023-07-13T12:51:17;95812.56;;;24.45;41.19
81608;BME280;71022;48.122;11.576;2023-07-13T12:53:49;95810.50;;;24.61;40.93
81608;BME280;71022;48.122;11.576;2023-07-13T12:56:21;95805.53;;;24.69;39.21
81608;BME280;71022;48.122;11.576;2023-07-13T12:58:50;95806.13;;;24.76;38.51
81608;BME280;71022;48.122;11.576;2023-07-13T13:01:22;95799.97;;;24.98;37.88
81608;BME280;71022;48.122;11.576;2023-07-13T13:03:54;95790.50;;;24.92;37.74
81608;BME280;71022;48.122;11.576;2023-07-13T13:06:27;95782.44;;;24.94;39.32
81608;BME280;71022;48.122;11.576;2023-07-13T13:08:57;95782.94;;;25.05;38.18
81608;BME280;71022;48.122;11.576;2023-07-13T13:11:30;95785.19;;;25.10;38.39
81608;BME280;71022;48.122;11.576;2023-07-13T13:13:57;95782.25;;;24.68;37.18
81608;BME280;71022;48.122;11.576;2023-07-13T13:16:32;95790.69;;;24.36;38.79
81608;BME280;71022;48.122;11.576;2023-07-13T13:19:15;95787.53;;;24.50;38.58
81608;BME280;71022;48.122;11.576;2023-07-13T13:21:43;95788.25;;;24.54;38.94
81608;BME280;71022;48.122;11.576;2023-07-13T13:24:16;95785.34;;;24.42;38.46
81608;BME280;71022;48.122;11.576;2023-07-13T13:26:44;95784.75;;;24.34;39.18
81608;BME280;71022;48.122;11.576;2023-07-13T13:29:18;95780.16;;;24.24;38.53
81608;BME280;71022;48.122;11.576;2023-07-13T13:31:46;95784.50;;;24.09;37.88
81608;BME280;71022;48.122;11.576;2023-07-13T13:34:15;95789.31;;;24.08;39.43
81608;BME280;71022;48.122;11.576;2023-07-13T13:36:44;95797.16;;;24.17;38.90
81608;BME280;71022;48.122;11.576;2023-07-13T13:39:19;95785.78;;;24.24;38.24
81608;BME280;71022;48.122;11.576;2023-07-13T13:41:48;95791.03;;;24.38;37.56
81608;BME280;71022;48.122;11.576;2023-07-13T13:44:16;95790.59;;;24.72;37.24
81608;BME280;71022;48.122;11.576;2023-07-13T13:46:49;95787.44;;;24.70;37.71
81608;BME280;71022;48.122;11.576;2023-07-13T13:49:20;95792.16;;;24.73;36.76
81608;BME280;71022;48.122;11.576;2023-07-13T13:51:48;95799.28;;;24.61;38.23
81608;BME280;71022;48.122;11.576;2023-07-13T13:54:17;95798.94;;;24.43;36.69
81608;BME280;71022;48.122;11.576;2023-07-13T13:56:46;95794.72;;;24.19;37.41
81608;BME280;71022;48.122;11.576;2023-07-13T13:59:14;95793.09;;;24.02;37.37
81608;BME280;71022;48.122;11.576;2023-07-13T14:01:45;95789.19;;;23.80;38.01
81608;BME280;71022;48.122;11.576;2023-07-13T14:04:20;95789.47;;;23.65;39.47
81608;BME280;71022;48.122;11.576;2023-07-13T14:06:48;95789.66;;;23.58;40.82
81608;BME280;71022;48.122;11.576;2023-07-13T14:09:18;95790.06;;;23.77;41.74
81608;BME280;71022;48.122;11.576;2023-07-13T14:11:47;95787.72;;;24.07;38.92
81608;BME280;71022;48.122;11.576;2023-07-13T14:14:20;95789.59;;;23.98;38.77
81608;BME280;71022;48.122;11.576;2023-07-13T14:16:49;95794.63;;;23.87;38.73
81608;BME280;71022;48.122;11.576;2023-07-13T14:19:21;95799.06;;;24.04;39.91